Terminal Aerodrome Forecast
Issued by NWS

Home | Current Version | Previous Version | Text Only | Print | Product List | Glossary On
Versions: 1 2 3 4 5 6 7 8 9 10 11 12 13 14 15 16
000
FTUS43 KMPX 310529
TAFAXN
TAF
KAXN 310529Z 3106/0106 29010KT P6SM SKC
     FM311700 31015G20KT P6SM SKC
     FM010100 30007KT P6SM SKC=

USA.gov is the U.S. government's official web portal to all federal, state and local government web resources and services.